sensor_id;sensor_type;location;lat;lon;timestamp;temperature;humidity
31597;DHT22;74162;50.912;6.918;2023-11-21T00:00:28;8.90;99.90
31597;DHT22;74162;50.912;6.918;2023-11-21T00:01:00;8.90;99.90
31597;DHT22;74162;50.912;6.918;2023-11-21T00:01:33;8.90;99.90
31597;DHT22;74162;50.912;6.918;2023-11-21T00:02:05;8.90;99.90
31597;DHT22;74162;50.912;6.918;2023-11-21T00:02:37;8.90;99.90
31597;DHT22;74162;50.912;6.918;2023-11-21T00:03:09;8.90;99.90
31597;DHT22;74162;50.912;6.918;2023-11-21T00:03:41;8.90;99.90
31597;DHT22;74162;50.912;6.918;2023-11-21T00:04:13;9.00;99.90
31597;DHT22;74162;50.912;6.918;2023-11-21T00:04:45;9.00;99.90
31597;DHT22;74162;50.912;6.918;2023-11-21T00:05:16;9.00;99.90
31597;DHT22;74162;50.912;6.918;2023-11-21T00:05:48;9.00;99.90
31597;DHT22;74162;50.912;6.918;2023-11-21T00:06:20;9.00;99.90
31597;DHT22;74162;50.912;6.918;2023-11-21T00:06:52;9.00;99.90
31597;DHT22;74162;50.912;6.918;2023-11-21T00:07:24;9.00;99.90
31597;DHT22;74162;50.912;6.918;2023-11-21T00:07:56;9.00;99.90
31597;DHT22;74162;50.912;6.918;2023-11-21T00:08:28;9.00;99.90
31597;DHT22;74162;50.912;6.918;2023-11-21T00:09:00;9.00;99.90
31597;DHT22;74162;50.912;6.918;2023-11-21T00:09:31;9.00;99.90
31597;DHT22;74162;50.912;6.918;2023-11-21T00:10:04;8.90;99.90
31597;DHT22;74162;50.912;6.918;2023-11-21T00:10:36;9.00;99.90
31597;DHT22;74162;50.912;6.918;2023-11-21T00:11:08;8.90;99.90
31597;DHT22;74162;50.912;6.918;2023-11-21T00:11:40;8.90;99.90
31597;DHT22;74162;50.912;6.918;2023-11-21T00:12:12;8.90;99.90
31597;DHT22;74162;50.912;6.918;2023-11-21T00:12:44;8.90;99.90
31597;DHT22;74162;50.912;6.918;2023-11-21T00:13:15;8.90;99.90
31597;DHT22;74162;50.912;6.918;2023-11-21T00:13:47;8.90;99.90
31597;DHT22;74162;50.912;6.918;2023-11-21T00:14:21;9.00;99.90
31597;DHT22;74162;50.912;6.918;2023-11-21T00:14:53;9.00;99.90
31597;DHT22;74162;50.912;6.918;2023-11-21T00:15:28;9.00;99.90
31597;DHT22;74162;50.912;6.918;2023-11-21T00:16:00;9.00;99.90
31597;DHT22;74162;50.912;6.918;2023-11-21T00:16:34;9.00;99.90
31597;DHT22;74162;50.912;6.918;2023-11-21T00:17:06;9.10;99.90
31597;DHT22;74162;50.912;6.918;2023-11-21T00:17:38;9.00;99.90
31597;DHT22;74162;50.912;6.918;2023-11-21T00:18:10;9.00;99.90
31597;DHT22;74162;50.912;6.918;2023-11-21T00:18:42;9.00;99.90
31597;DHT22;74162;50.912;6.918;2023-11-21T00:19:13;9.00;99.90
31597;DHT22;74162;50.912;6.918;2023-11-21T00:19:45;9.00;99.90
31597;DHT22;74162;50.912;6.918;2023-11-21T00:20:17;9.00;99.90
31597;DHT22;74162;50.912;6.918;2023-11-21T00:20:49;9.10;99.90
31597;DHT22;74162;50.912;6.918;2023-11-21T00:21:21;9.00;99.90
31597;DHT22;74162;50.912;6.918;2023-11-21T00:21:53;9.00;99.90
31597;DHT22;74162;50.912;6.918;2023-11-21T00:22:24;9.00;99.90
31597;DHT22;74162;50.912;6.918;2023-11-21T00:22:56;9.00;99.90
31597;DHT22;74162;50.912;6.918;2023-11-21T00:23:28;9.00;99.90
31597;DHT22;74162;50.912;6.918;2023-11-21T00:24:00;9.00;99.90
31597;DHT22;74162;50.912;6.918;2023-11-21T00:24:32;9.00;99.90
31597;DHT22;74162;50.912;6.918;2023-11-21T00:25:04;9.00;99.90
31597;DHT22;74162;50.912;6.918;2023-11-21T00:25:37;9.00;99.90
31597;DHT22;74162;50.912;6.918;2023-11-21T00:26:09;9.00;99.90
31597;DHT22;74162;50.912;6.918;2023-11-21T00:26:41;9.00;99.90
31597;DHT22;74162;50.912;6.918;2023-11-21T00:27:13;9.00;99.90
31597;DHT22;74162;50.912;6.918;2023-11-21T00:27:45;9.10;99.90
31597;DHT22;74162;50.912;6.918;2023-11-21T00:28:17;9.10;99.90
31597;DHT22;74162;50.912;6.918;2023-11-21T00:28:48;9.00;99.90
31597;DHT22;74162;50.912;6.918;2023-11-21T00:29:20;9.00;99.90
31597;DHT22;74162;50.912;6.918;2023-11-21T00:29:52;9.00;99.90
31597;DHT22;74162;50.912;6.918;2023-11-21T00:30:24;9.00;99.90
31597;DHT22;74162;50.912;6.918;2023-11-21T00:30:56;9.10;99.90
31597;DHT22;74162;50.912;6.918;2023-11-21T00:31:27;9.00;99.90
31597;DHT22;74162;50.912;6.918;2023-11-21T00:32:01;9.00;99.90
31597;DHT22;74162;50.912;6.918;2023-11-21T00:32:33;9.00;99.90
31597;DHT22;74162;50.912;6.918;2023-11-21T00:33:05;9.10;99.90
31597;DHT22;74162;50.912;6.918;2023-11-21T00:33:37;9.10;99.90
31597;DHT22;74162;50.912;6.918;2023-11-21T00:34:09;9.10;99.90
31597;DHT22;74162;50.912;6.918;2023-11-21T00:34:41;9.10;99.90
31597;DHT22;74162;50.912;6.918;2023-11-21T00:35:13;9.10;99.90
31597;DHT22;74162;50.912;6.918;2023-11-21T00:35:44;9.10;99.90
31597;DHT22;74162;50.912;6.918;2023-11-21T00:36:16;9.10;99.90
31597;DHT22;74162;50.912;6.918;2023-11-21T00:36:49;9.00;99.90
31597;DHT22;74162;50.912;6.918;2023-11-21T00:37:21;9.00;99.90
31597;DHT22;74162;50.912;6.918;2023-11-21T00:37:53;9.00;99.90
31597;DHT22;74162;50.912;6.918;2023-11-21T00:38:24;9.00;99.90
31597;DHT22;74162;50.912;6.918;2023-11-21T00:38:56;9.00;99.90
31597;DHT22;74162;50.912;6.918;2023-11-21T00:39:28;9.00;99.90
31597;DHT22;74162;50.912;6.918;2023-11-21T00:40:00;9.00;99.90
31597;DHT22;74162;50.912;6.918;2023-11-21T00:40:32;9.00;99.90
31597;DHT22;74162;50.912;6.918;2023-11-21T00:41:04;9.00;99.90
31597;DHT22;74162;50.912;6.918;2023-11-21T00:41:35;9.00;99.90
31597;DHT22;74162;50.912;6.918;2023-11-21T00:42:07;9.00;99.90
31597;DHT22;74162;50.912;6.918;2023-11-21T00:42:39;9.00;99.90
31597;DHT22;74162;50.912;6.918;2023-11-21T00:43:11;9.00;99.90
31597;DHT22;74162;50.912;6.918;2023-11-21T00:43:43;9.00;99.90
31597;DHT22;74162;50.912;6.918;2023-11-21T00:44:15;9.00;99.90
31597;DHT22;74162;50.912;6.918;2023-11-21T00:44:47;9.00;99.90
31597;DHT22;74162;50.912;6.918;2023-11-21T00:45:19;9.00;99.90
31597;DHT22;74162;50.912;6.918;2023-11-21T00:45:50;9.00;99.90
31597;DHT22;74162;50.912;6.918;2023-11-21T00:46:22;9.00;99.90
31597;DHT22;74162;50.912;6.918;2023-11-21T00:46:54;9.00;99.90
31597;DHT22;74162;50.912;6.918;2023-11-21T00:47:27;9.10;99.90
31597;DHT22;74162;50.912;6.918;2023-11-21T00:47:59;9.10;99.90
31597;DHT22;74162;50.912;6.918;2023-11-21T00:48:31;9.10;99.90
31597;DHT22;74162;50.912;6.918;2023-11-21T00:49:03;9.10;99.90
31597;DHT22;74162;50.912;6.918;2023-11-21T00:49:35;9.10;99.90
31597;DHT22;74162;50.912;6.918;2023-11-21T00:50:08;9.10;99.90
31597;DHT22;74162;50.912;6.918;2023-11-21T00:50:40;9.10;99.90
31597;DHT22;74162;50.912;6.918;2023-11-21T00:51:12;9.10;99.90
31597;DHT22;74162;50.912;6.918;2023-11-21T00:51:44;9.10;99.90
31597;DHT22;74162;50.912;6.918;2023-11-21T00:52:15;9.10;99.90
31597;DHT22;74162;50.912;6.918;2023-11-21T00:52:47;9.10;99.90
31597;DHT22;74162;50.912;6.918;2023-11-21T00:53:19;9.10;99.90
31597;DHT22;74162;50.912;6.918;2023-11-21T00:53:51;9.10;99.90
31597;DHT22;74162;50.912;6.918;2023-11-21T00:54:23;9.10;99.90
31597;DHT22;74162;50.912;6.918;2023-11-21T00:54:55;9.10;99.90
31597;DHT22;74162;50.912;6.918;2023-11-21T00:55:27;9.00;99.90
31597;DHT22;74162;50.912;6.918;2023-11-21T00:55:58;9.00;99.90
31597;DHT22;74162;50.912;6.918;2023-11-21T00:56:30;9.00;99.90
31597;DHT22;74162;50.912;6.918;2023-11-21T00:57:02;9.10;99.90
31597;DHT22;74162;50.912;6.918;2023-11-21T00:57:34;9.10;99.90
31597;DHT22;74162;50.912;6.918;2023-11-21T00:58:07;9.10;99.90
31597;DHT22;74162;50.912;6.918;2023-11-21T00:58:39;9.10;99.90
31597;DHT22;74162;50.912;6.918;2023-11-21T00:59:10;9.20;99.90
31597;DHT22;74162;50.912;6.918;2023-11-21T00:59:42;9.20;99.90
31597;DHT22;74162;50.912;6.918;2023-11-21T01:00:15;9.20;99.90
31597;DHT22;74162;50.912;6.918;2023-11-21T01:00:47;9.20;99.90
31597;DHT22;74162;50.912;6.918;2023-11-21T01:01:19;9.20;99.90
31597;DHT22;74162;50.912;6.918;2023-11-21T01:01:51;9.30;99.90
31597;DHT22;74162;50.912;6.918;2023-11-21T01:02:23;9.30;99.90
31597;DHT22;74162;50.912;6.918;2023-11-21T01:02:56;9.30;99.90
31597;DHT22;74162;50.912;6.918;2023-11-21T01:03:28;9.40;99.90
31597;DHT22;74162;50.912;6.918;2023-11-21T01:04:00;9.50;99.90
31597;DHT22;74162;50.912;6.918;2023-11-21T01:04:32;9.50;99.90
31597;DHT22;74162;50.912;6.918;2023-11-21T01:05:04;9.60;99.90
31597;DHT22;74162;50.912;6.918;2023-11-21T01:05:36;9.60;99.90
31597;DHT22;74162;50.912;6.918;2023-11-21T01:06:08;9.60;99.90
31597;DHT22;74162;50.912;6.918;2023-11-21T01:06:40;9.40;99.90
31597;DHT22;74162;50.912;6.918;2023-11-21T01:07:12;9.40;99.90
31597;DHT22;74162;50.912;6.918;2023-11-21T01:07:44;9.40;99.90
31597;DHT22;74162;50.912;6.918;2023-11-21T01:08:16;9.30;99.90
31597;DHT22;74162;50.912;6.918;2023-11-21T01:08:48;9.30;99.90
31597;DHT22;74162;50.912;6.918;2023-11-21T01:09:19;9.30;99.90
31597;DHT22;74162;50.912;6.918;2023-11-21T01:09:51;9.20;99.90
31597;DHT22;74162;50.912;6.918;2023-11-21T01:10:23;9.20;99.90
31597;DHT22;74162;50.912;6.918;2023-11-21T01:10:55;9.10;99.90
31597;DHT22;74162;50.912;6.918;2023-11-21T01:11:26;9.20;99.90
31597;DHT22;74162;50.912;6.918;2023-11-21T01:11:58;9.20;99.90
31597;DHT22;74162;50.912;6.918;2023-11-21T01:12:30;9.10;99.90
31597;DHT22;74162;50.912;6.918;2023-11-21T01:13:03;9.10;99.90
31597;DHT22;74162;50.912;6.918;2023-11-21T01:13:34;9.10;99.90
31597;DHT22;74162;50.912;6.918;2023-11-21T01:14:06;9.00;99.90
31597;DHT22;74162;50.912;6.918;2023-11-21T01:14:38;9.00;99.90
31597;DHT22;74162;50.912;6.918;2023-11-21T01:15:10;9.00;99.90
31597;DHT22;74162;50.912;6.918;2023-11-21T01:15:42;9.00;99.90
31597;DHT22;74162;50.912;6.918;2023-11-21T01:16:14;9.00;99.90
31597;DHT22;74162;50.912;6.918;2023-11-21T01:16:45;9.00;99.90
31597;DHT22;74162;50.912;6.918;2023-11-21T01:17:17;9.00;99.90
31597;DHT22;74162;50.912;6.918;2023-11-21T01:17:49;9.00;99.90
31597;DHT22;74162;50.912;6.918;2023-11-21T01:18:23;9.10;99.90
31597;DHT22;74162;50.912;6.918;2023-11-21T01:18:55;9.10;99.90
31597;DHT22;74162;50.912;6.918;2023-11-21T01:19:26;9.00;99.90
31597;DHT22;74162;50.912;6.918;2023-11-21T01:19:58;9.00;99.90
31597;DHT22;74162;50.912;6.918;2023-11-21T01:20:30;9.00;99.90
31597;DHT22;74162;50.912;6.918;2023-11-21T01:21:02;9.10;99.90
31597;DHT22;74162;50.912;6.918;2023-11-21T01:21:35;9.10;99.90
31597;DHT22;74162;50.912;6.918;2023-11-21T01:22:06;9.10;99.90
31597;DHT22;74162;50.912;6.918;2023-11-21T01:22:39;9.10;99.90
31597;DHT22;74162;50.912;6.918;2023-11-21T01:23:11;9.10;99.90
31597;DHT22;74162;50.912;6.918;2023-11-21T01:23:42;9.00;99.90
31597;DHT22;74162;50.912;6.918;2023-11-21T01:24:14;9.00;99.90
31597;DHT22;74162;50.912;6.918;2023-11-21T01:24:46;9.10;99.90
31597;DHT22;74162;50.912;6.918;2023-11-21T01:25:18;9.10;99.90
31597;DHT22;74162;50.912;6.918;2023-11-21T01:25:50;9.10;99.90
31597;DHT22;74162;50.912;6.918;2023-11-21T01:26:22;9.10;99.90
31597;DHT22;74162;50.912;6.918;2023-11-21T01:26:53;9.10;99.90
31597;DHT22;74162;50.912;6.918;2023-11-21T01:27:25;9.20;99.90
31597;DHT22;74162;50.912;6.918;2023-11-21T01:27:57;9.20;99.90
31597;DHT22;74162;50.912;6.918;2023-11-21T01:28:29;9.20;99.90
31597;DHT22;74162;50.912;6.918;2023-11-21T01:29:01;9.10;99.90
31597;DHT22;74162;50.912;6.918;2023-11-21T01:29:32;9.10;99.90
31597;DHT22;74162;50.912;6.918;2023-11-21T01:30:05;9.10;99.90
31597;DHT22;74162;50.912;6.918;2023-11-21T01:30:38;9.00;99.90
31597;DHT22;74162;50.912;6.918;2023-11-21T01:31:09;9.00;99.90
31597;DHT22;74162;50.912;6.918;2023-11-21T01:31:41;9.00;99.90
31597;DHT22;74162;50.912;6.918;2023-11-21T01:32:13;9.00;99.90
31597;DHT22;74162;50.912;6.918;2023-11-21T01:32:45;8.90;99.90
31597;DHT22;74162;50.912;6.918;2023-11-21T01:33:17;8.90;99.90
31597;DHT22;74162;50.912;6.918;2023-11-21T01:33:51;8.90;99.90
31597;DHT22;74162;50.912;6.918;2023-11-21T01:34:22;8.90;99.90
31597;DHT22;74162;50.912;6.918;2023-11-21T01:34:54;8.90;99.90
31597;DHT22;74162;50.912;6.918;2023-11-21T01:35:26;8.80;99.90
31597;DHT22;74162;50.912;6.918;2023-11-21T01:35:58;8.80;99.90
31597;DHT22;74162;50.912;6.918;2023-11-21T01:36:30;8.90;99.90
31597;DHT22;74162;50.912;6.918;2023-11-21T01:37:02;8.90;99.90
31597;DHT22;74162;50.912;6.918;2023-11-21T01:37:35;8.90;99.90
31597;DHT22;74162;50.912;6.918;2023-11-21T01:38:06;9.00;99.90
31597;DHT22;74162;50.912;6.918;2023-11-21T01:38:38;9.10;99.90
31597;DHT22;74162;50.912;6.918;2023-11-21T01:39:10;9.10;99.90
31597;DHT22;74162;50.912;6.918;2023-11-21T01:39:42;9.00;99.90
31597;DHT22;74162;50.912;6.918;2023-11-21T01:40:14;9.00;99.90
31597;DHT22;74162;50.912;6.918;2023-11-21T01:40:46;9.00;99.90
31597;DHT22;74162;50.912;6.918;2023-11-21T01:41:18;9.00;99.90
31597;DHT22;74162;50.912;6.918;2023-11-21T01:41:50;9.00;99.90
31597;DHT22;74162;50.912;6.918;2023-11-21T01:42:22;9.20;99.90
31597;DHT22;74162;50.912;6.918;2023-11-21T01:42:54;9.20;99.90
31597;DHT22;74162;50.912;6.918;2023-11-21T01:43:26;9.20;99.90
31597;DHT22;74162;50.912;6.918;2023-11-21T01:43:57;9.20;99.90
31597;DHT22;74162;50.912;6.918;2023-11-21T01:44:29;9.30;99.90
31597;DHT22;74162;50.912;6.918;2023-11-21T01:45:01;9.20;99.90
31597;DHT22;74162;50.912;6.918;2023-11-21T01:45:33;9.30;99.90
31597;DHT22;74162;50.912;6.918;2023-11-21T01:46:05;9.20;99.90
31597;DHT22;74162;50.912;6.918;2023-11-21T01:46:38;9.20;99.90
31597;DHT22;74162;50.912;6.918;2023-11-21T01:47:10;9.30;99.90
31597;DHT22;74162;50.912;6.918;2023-11-21T01:47:44;9.20;99.90
31597;DHT22;74162;50.912;6.918;2023-11-21T01:48:16;9.10;99.90
31597;DHT22;74162;50.912;6.918;2023-11-21T01:48:48;9.00;99.90
31597;DHT22;74162;50.912;6.918;2023-11-21T01:49:22;9.00;99.90
31597;DHT22;74162;50.912;6.918;2023-11-21T01:49:54;8.90;99.90
31597;DHT22;74162;50.912;6.918;2023-11-21T01:50:26;8.80;99.90
31597;DHT22;74162;50.912;6.918;2023-11-21T01:50:58;8.80;99.90
31597;DHT22;74162;50.912;6.918;2023-11-21T01:51:30;8.80;99.90
31597;DHT22;74162;50.912;6.918;2023-11-21T01:52:03;8.70;99.90
31597;DHT22;74162;50.912;6.918;2023-11-21T01:52:36;8.90;99.90
31597;DHT22;74162;50.912;6.918;2023-11-21T01:53:08;8.90;99.90
31597;DHT22;74162;50.912;6.918;2023-11-21T01:53:40;8.80;99.90
31597;DHT22;74162;50.912;6.918;2023-11-21T01:54:12;8.80;99.90
31597;DHT22;74162;50.912;6.918;2023-11-21T01:54:48;8.80;99.90
31597;DHT22;74162;50.912;6.918;2023-11-21T01:55:21;8.80;99.90
31597;DHT22;74162;50.912;6.918;2023-11-21T01:55:55;8.80;99.90
31597;DHT22;74162;50.912;6.918;2023-11-21T01:56:29;8.80;99.90
31597;DHT22;74162;50.912;6.918;2023-11-21T01:57:01;8.70;99.90
31597;DHT22;74162;50.912;6.918;2023-11-21T01:57:35;8.70;99.90
31597;DHT22;74162;50.912;6.918;2023-11-21T01:58:08;8.70;99.90
31597;DHT22;74162;50.912;6.918;2023-11-21T01:58:40;8.70;99.90
31597;DHT22;74162;50.912;6.918;2023-11-21T01:59:15;8.70;99.90
31597;DHT22;74162;50.912;6.918;2023-11-21T01:59:51;8.70;99.90
31597;DHT22;74162;50.912;6.918;2023-11-21T02:00:25;8.70;99.90
31597;DHT22;74162;50.912;6.918;2023-11-21T02:00:57;8.70;99.90
31597;DHT22;74162;50.912;6.918;2023-11-21T02:01:28;8.70;99.90
31597;DHT22;74162;50.912;6.918;2023-11-21T02:02:00;8.80;99.90
31597;DHT22;74162;50.912;6.918;2023-11-21T02:02:32;8.80;99.90
31597;DHT22;74162;50.912;6.918;2023-11-21T02:03:04;8.90;99.90
31597;DHT22;74162;50.912;6.918;2023-11-21T02:03:36;8.90;99.90
31597;DHT22;74162;50.912;6.918;2023-11-21T02:04:09;8.90;99.90
31597;DHT22;74162;50.912;6.918;2023-11-21T02:04:41;8.90;99.90
31597;DHT22;74162;50.912;6.918;2023-11-21T02:05:14;8.90;99.90
31597;DHT22;74162;50.912;6.918;2023-11-21T02:05:47;9.00;99.90
31597;DHT22;74162;50.912;6.918;2023-11-21T02:06:19;9.00;99.90
31597;DHT22;74162;50.912;6.918;2023-11-21T02:06:51;8.90;99.90
31597;DHT22;74162;50.912;6.918;2023-11-21T02:07:23;8.90;99.90
31597;DHT22;74162;50.912;6.918;2023-11-21T02:07:55;8.90;99.90
31597;DHT22;74162;50.912;6.918;2023-11-21T02:08:26;9.00;99.90
31597;DHT22;74162;50.912;6.918;2023-11-21T02:08:58;9.00;99.90
31597;DHT22;74162;50.912;6.918;2023-11-21T02:09:30;8.90;99.90
31597;DHT22;74162;50.912;6.918;2023-11-21T02:10:02;8.90;99.90
31597;DHT22;74162;50.912;6.918;2023-11-21T02:10:34;8.80;99.90
31597;DHT22;74162;50.912;6.918;2023-11-21T02:11:06;8.80;99.90
31597;DHT22;74162;50.912;6.918;2023-11-21T02:11:38;8.80;99.90
31597;DHT22;74162;50.912;6.918;2023-11-21T02:12:10;8.80;99.90
31597;DHT22;74162;50.912;6.918;2023-11-21T02:12:42;8.90;99.90
31597;DHT22;74162;50.912;6.918;2023-11-21T02:13:14;8.80;99.90
31597;DHT22;74162;50.912;6.918;2023-11-21T02:13:46;8.80;99.90
31597;DHT22;74162;50.912;6.918;2023-11-21T02:14:18;8.70;99.90
31597;DHT22;74162;50.912;6.918;2023-11-21T02:14:49;8.70;99.90
31597;DHT22;74162;50.912;6.918;2023-11-21T02:15:22;8.70;99.90
31597;DHT22;74162;50.912;6.918;2023-11-21T02:15:53;8.70;99.90
31597;DHT22;74162;50.912;6.918;2023-11-21T02:16:25;8.70;99.90
31597;DHT22;74162;50.912;6.918;2023-11-21T02:16:57;8.70;99.90
31597;DHT22;74162;50.912;6.918;2023-11-21T02:17:29;8.70;99.90
31597;DHT22;74162;50.912;6.918;2023-11-21T02:18:01;8.70;99.90
31597;DHT22;74162;50.912;6.918;2023-11-21T02:18:33;8.70;99.90
31597;DHT22;74162;50.912;6.918;2023-11-21T02:19:09;8.70;99.90
31597;DHT22;74162;50.912;6.918;2023-11-21T02:19:42;8.70;99.90
31597;DHT22;74162;50.912;6.918;2023-11-21T02:20:14;8.70;99.90
31597;DHT22;74162;50.912;6.918;2023-11-21T02:20:46;8.70;99.90
31597;DHT22;74162;50.912;6.918;2023-11-21T02:21:17;8.60;99.90
31597;DHT22;74162;50.912;6.918;2023-11-21T02:21:50;8.60;99.90
31597;DHT22;74162;50.912;6.918;2023-11-21T02:22:22;8.60;99.90
31597;DHT22;74162;50.912;6.918;2023-11-21T02:22:55;8.50;99.90
31597;DHT22;74162;50.912;6.918;2023-11-21T02:23:28;8.50;99.90
31597;DHT22;74162;50.912;6.918;2023-11-21T02:23:59;8.60;99.90
31597;DHT22;74162;50.912;6.918;2023-11-21T02:24:31;8.50;99.90
31597;DHT22;74162;50.912;6.918;2023-11-21T02:25:04;8.50;99.90
31597;DHT22;74162;50.912;6.918;2023-11-21T02:25:36;8.50;99.90
31597;DHT22;74162;50.912;6.918;2023-11-21T02:26:08;8.40;99.90
31597;DHT22;74162;50.912;6.918;2023-11-21T02:26:40;8.40;99.90
31597;DHT22;74162;50.912;6.918;2023-11-21T02:27:13;8.40;99.90
31597;DHT22;74162;50.912;6.918;2023-11-21T02:27:45;8.50;99.90
31597;DHT22;74162;50.912;6.918;2023-11-21T02:28:17;8.50;99.90
31597;DHT22;74162;50.912;6.918;2023-11-21T02:28:49;8.50;99.90
31597;DHT22;74162;50.912;6.918;2023-11-21T02:29:21;8.50;99.90
31597;DHT22;74162;50.912;6.918;2023-11-21T02:29:53;8.50;99.90
31597;DHT22;74162;50.912;6.918;2023-11-21T02:30:26;8.50;99.90
31597;DHT22;74162;50.912;6.918;2023-11-21T02:30:58;8.40;99.90
31597;DHT22;74162;50.912;6.918;2023-11-21T02:31:29;8.40;99.90
31597;DHT22;74162;50.912;6.918;2023-11-21T02:32:02;8.50;99.90
31597;DHT22;74162;50.912;6.918;2023-11-21T02:32:33;8.50;99.90
31597;DHT22;74162;50.912;6.918;2023-11-21T02:33:19;8.50;99.90
31597;DHT22;74162;50.912;6.918;2023-11-21T02:33:50;8.50;99.90
31597;DHT22;74162;50.912;6.918;2023-11-21T02:34:23;8.40;99.90
31597;DHT22;74162;50.912;6.918;2023-11-21T02:34:55;8.40;99.90
31597;DHT22;74162;50.912;6.918;2023-11-21T02:35:27;8.40;99.90
31597;DHT22;74162;50.912;6.918;2023-11-21T02:35:58;8.40;99.90
31597;DHT22;74162;50.912;6.918;2023-11-21T02:36:30;8.40;99.90
31597;DHT22;74162;50.912;6.918;2023-11-21T02:37:02;8.40;99.90
31597;DHT22;74162;50.912;6.918;2023-11-21T02:37:34;8.40;99.90
31597;DHT22;74162;50.912;6.918;2023-11-21T02:38:08;8.40;99.90
31597;DHT22;74162;50.912;6.918;2023-11-21T02:38:39;8.40;99.90
31597;DHT22;74162;50.912;6.918;2023-11-21T02:39:11;8.30;99.90
31597;DHT22;74162;50.912;6.918;2023-11-21T02:39:43;8.30;99.90
31597;DHT22;74162;50.912;6.918;2023-11-21T02:40:16;8.30;99.90
31597;DHT22;74162;50.912;6.918;2023-11-21T02:40:48;8.30;99.90
31597;DHT22;74162;50.912;6.918;2023-11-21T02:41:20;8.30;99.90
31597;DHT22;74162;50.912;6.918;2023-11-21T02:41:51;8.30;99.90
31597;DHT22;74162;50.912;6.918;2023-11-21T02:42:23;8.40;99.90
31597;DHT22;74162;50.912;6.918;2023-11-21T02:42:55;8.40;99.90
31597;DHT22;74162;50.912;6.918;2023-11-21T02:43:27;8.40;99.90
31597;DHT22;74162;50.912;6.918;2023-11-21T02:43:59;8.40;99.90
31597;DHT22;74162;50.912;6.918;2023-11-21T02:44:31;8.30;99.90
31597;DHT22;74162;50.912;6.918;2023-11-21T02:45:03;8.30;99.90
31597;DHT22;74162;50.912;6.918;2023-11-21T02:45:35;8.30;99.90
31597;DHT22;74162;50.912;6.918;2023-11-21T02:46:08;8.30;99.90
31597;DHT22;74162;50.912;6.918;2023-11-21T02:46:40;8.30;99.90
31597;DHT22;74162;50.912;6.918;2023-11-21T02:47:12;8.30;99.90
31597;DHT22;74162;50.912;6.918;2023-11-21T02:47:44;8.30;99.90
31597;DHT22;74162;50.912;6.918;2023-11-21T02:48:16;8.30;99.90
31597;DHT22;74162;50.912;6.918;2023-11-21T02:48:47;8.30;99.90
31597;DHT22;74162;50.912;6.918;2023-11-21T02:49:19;8.30;99.90
31597;DHT22;74162;50.912;6.918;2023-11-21T02:49:51;8.30;99.90
31597;DHT22;74162;50.912;6.918;2023-11-21T02:50:23;8.30;99.90
31597;DHT22;74162;50.912;6.918;2023-11-21T02:50:55;8.30;99.90
31597;DHT22;74162;50.912;6.918;2023-11-21T02:51:27;8.30;99.90
31597;DHT22;74162;50.912;6.918;2023-11-21T02:51:59;8.30;99.90
31597;DHT22;74162;50.912;6.918;2023-11-21T02:52:30;8.30;99.90
31597;DHT22;74162;50.912;6.918;2023-11-21T02:53:02;8.30;99.90
31597;DHT22;74162;50.912;6.918;2023-11-21T02:53:36;8.30;99.90
31597;DHT22;74162;50.912;6.918;2023-11-21T02:54:08;8.30;99.90
31597;DHT22;74162;50.912;6.918;2023-11-21T02:54:40;8.30;99.90
31597;DHT22;74162;50.912;6.918;2023-11-21T02:55:12;8.30;99.90
31597;DHT22;74162;50.912;6.918;2023-11-21T02:55:43;8.40;99.90
31597;DHT22;74162;50.912;6.918;2023-11-21T02:56:15;8.40;99.90
31597;DHT22;74162;50.912;6.918;2023-11-21T02:56:47;8.40;99.90
31597;DHT22;74162;50.912;6.918;2023-11-21T02:57:19;8.40;99.90
31597;DHT22;74162;50.912;6.918;2023-11-21T02:57:51;8.40;99.90
31597;DHT22;74162;50.912;6.918;2023-11-21T02:58:23;8.40;99.90
31597;DHT22;74162;50.912;6.918;2023-11-21T02:58:55;8.40;99.90
31597;DHT22;74162;50.912;6.918;2023-11-21T02:59:27;8.40;99.90
31597;DHT22;74162;50.912;6.918;2023-11-21T02:59:59;8.40;99.90
31597;DHT22;74162;50.912;6.918;2023-11-21T03:00:31;8.40;99.90
31597;DHT22;74162;50.912;6.918;2023-11-21T03:01:03;8.50;99.90
31597;DHT22;74162;50.912;6.918;2023-11-21T03:01:35;8.50;99.90
31597;DHT22;74162;50.912;6.918;2023-11-21T03:02:07;8.50;99.90
31597;DHT22;74162;50.912;6.918;2023-11-21T03:02:39;8.50;99.90
31597;DHT22;74162;50.912;6.918;2023-11-21T03:03:12;8.50;99.90
31597;DHT22;74162;50.912;6.918;2023-11-21T03:03:44;8.50;99.90
31597;DHT22;74162;50.912;6.918;2023-11-21T03:04:16;8.50;99.90
31597;DHT22;74162;50.912;6.918;2023-11-21T03:04:48;8.40;99.90
31597;DHT22;74162;50.912;6.918;2023-11-21T03:05:20;8.50;99.90
31597;DHT22;74162;50.912;6.918;2023-11-21T03:05:51;8.50;99.90
31597;DHT22;74162;50.912;6.918;2023-11-21T03:06:23;8.50;99.90
31597;DHT22;74162;50.912;6.918;2023-11-21T03:06:55;8.50;99.90
31597;DHT22;74162;50.912;6.918;2023-11-21T03:07:27;8.50;99.90
31597;DHT22;74162;50.912;6.918;2023-11-21T03:07:59;8.50;99.90
31597;DHT22;74162;50.912;6.918;2023-11-21T03:08:30;8.50;99.90
31597;DHT22;74162;50.912;6.918;2023-11-21T03:09:04;8.50;99.90
31597;DHT22;74162;50.912;6.918;2023-11-21T03:09:36;8.50;99.90
31597;DHT22;74162;50.912;6.918;2023-11-21T03:10:08;8.60;99.90
31597;DHT22;74162;50.912;6.918;2023-11-21T03:10:40;8.60;99.90
31597;DHT22;74162;50.912;6.918;2023-11-21T03:11:12;8.60;99.90
31597;DHT22;74162;50.912;6.918;2023-11-21T03:11:44;8.60;99.90
31597;DHT22;74162;50.912;6.918;2023-11-21T03:12:16;8.60;99.90
31597;DHT22;74162;50.912;6.918;2023-11-21T03:12:47;8.60;99.90
31597;DHT22;74162;50.912;6.918;2023-11-21T03:13:19;8.60;99.90
31597;DHT22;74162;50.912;6.918;2023-11-21T03:13:51;8.60;99.90
31597;DHT22;74162;50.912;6.918;2023-11-21T03:14:23;8.60;99.90
31597;DHT22;74162;50.912;6.918;2023-11-21T03:14:55;8.60;99.90
31597;DHT22;74162;50.912;6.918;2023-11-21T03:15:26;8.60;99.90
31597;DHT22;74162;50.912;6.918;2023-11-21T03:15:58;8.60;99.90
31597;DHT22;74162;50.912;6.918;2023-11-21T03:16:32;8.60;99.90
31597;DHT22;74162;50.912;6.918;2023-11-21T03:17:04;8.60;99.90
31597;DHT22;74162;50.912;6.918;2023-11-21T03:17:35;8.60;99.90
31597;DHT22;74162;50.912;6.918;2023-11-21T03:18:08;8.60;99.90
31597;DHT22;74162;50.912;6.918;2023-11-21T03:18:40;8.60;99.90
31597;DHT22;74162;50.912;6.918;2023-11-21T03:19:12;8.60;99.90
31597;DHT22;74162;50.912;6.918;2023-11-21T03:19:44;8.60;99.90
31597;DHT22;74162;50.912;6.918;2023-11-21T03:20:16;8.70;99.90
31597;DHT22;74162;50.912;6.918;2023-11-21T03:20:48;8.60;99.90
31597;DHT22;74162;50.912;6.918;2023-11-21T03:21:19;8.70;99.90
31597;DHT22;74162;50.912;6.918;2023-11-21T03:21:51;8.70;99.90
31597;DHT22;74162;50.912;6.918;2023-11-21T03:22:23;8.60;99.90
31597;DHT22;74162;50.912;6.918;2023-11-21T03:22:55;8.70;99.90
31597;DHT22;74162;50.912;6.918;2023-11-21T03:23:27;8.60;99.90
31597;DHT22;74162;50.912;6.918;2023-11-21T03:23:59;8.70;99.90
31597;DHT22;74162;50.912;6.918;2023-11-21T03:24:32;8.70;99.90
31597;DHT22;74162;50.912;6.918;2023-11-21T03:25:04;8.70;99.90
31597;DHT22;74162;50.912;6.918;2023-11-21T03:25:37;8.70;99.90
31597;DHT22;74162;50.912;6.918;2023-11-21T03:26:11;8.70;99.90